ADDS TAF Data INFO
IDs: Format: Raw Decoded Include METARs

Data at: 1933 UTC 17 Jul 2018

KFLG 171857Z COR 07007KT 030V100 10SM BKN060 BKN100 BKN300 25/13 A3038 RMK TCU N ACSL E AO2 SLP180 T02500128

KFLG 171729Z 1718/1818 VRB05KT P6SM SCT080 BKN120
  TEMPO 1719/1723 VRB10G23KT 5SM -TSRA BKN050CB
  FM180200 VRB05KT P6SM BKN100